Meteo Giornale » Osservazioni meteo Italia » Cagliari-Elmas

ore: 11:20 - Osservazioni Meteo Cagliari-Elmas
Lat. 39° 15' N Lon. 9° 4' E Alt. 4 metri s.l.m.

sereno Europe/Rome

33 °C

Sereno

Temp. 24 Ore

24 °C

37 °C

Nord

16.7 Km/h

Dew point 15 °C

Umidità 33 %

Visibilità  10 Km

Il sole sorge alle ore 06:28

Il sole tramonta alle ore 20:29

Data e Ora Cielo e Fenomeni T °C DP °C Um. % Pres. hPa Vis. km Vento km/h
Oggi h: 11:20 sereno Sereno 33 15 33 1014 10 N 16.7
Oggi h: 10:50 sereno Sereno 32 18 43 1014 10 N/NE 14.8
Oggi h: 10:20 sereno Sereno 31 20 52 1014 10 N 18.5
Oggi h: 09:50 sereno Sereno 29 22 66 1014 10 N 18.5
Oggi h: 09:20 sereno Sereno 28 23 74 1014 10 N 20.3
Oggi h: 08:50 sereno Sereno 26 23 83 1013 10 N 18.5
Oggi h: 08:20 sereno Sereno 25 23 88 1013 10 N/NO 16.7
Oggi h: 07:50 sereno Sereno 24 22 88 1013 10 N 13
Oggi h: 07:20 sereno Sereno 24 22 88 1013 10 N 11.1
Oggi h: 06:50 sereno Sereno 24 22 88 1012 10 N/NO 13
Oggi h: 06:20 sereno Sereno 24 23 94 1012 10 N/NO 11.1
Oggi h: 05:50 sereno Sereno 24 23 94 1012 10 N/NO 9.3
Oggi h: 05:20 sereno Sereno 24 23 94 1012 10 N/NO 11.1
Oggi h: 04:50 sereno Sereno 24 23 94 1012 10 N/NO 9.3
Oggi h: 04:20 sereno Sereno 25 24 94 1012 10 N/NO 9.3
Oggi h: 03:50 sereno Sereno 25 24 94 1012 10 N 11.1
Oggi h: 03:20 sereno Sereno 25 24 94 1012 10 N/NO 9.3
Oggi h: 02:50 sereno Sereno 26 24 88 1012 10 N 7.4
Oggi h: 02:20 sereno Sereno 26 24 88 1012 10 N 11.1
Oggi h: 01:50 sereno Sereno 26 24 88 1013 10 N 9.3
Oggi h: 01:20 sereno Sereno 26 24 88 1013 10 N 14.8
Oggi h: 00:50 sereno Sereno 27 23 78 1013 10 N 18.5
Oggi h: 00:20 sereno Sereno 27 23 78 1013 10 N 16.7
Ieri h: 23:50 sereno Sereno 27 23 78 1013 10 N 18.5
Ieri h: 23:20 sereno Sereno 28 23 74 1013 10 N 20.3
Ieri h: 22:50 sereno Sereno 28 23 74 1012 10 N 22.2
Ieri h: 22:20 sereno Sereno 28 22 69 1013 10 N 20.3
Ieri h: 21:50 sereno Sereno 29 23 70 1012 10 N 22.2
Ieri h: 21:20 sereno Sereno 29 22 66 1012 10 N 20.3
Ieri h: 20:50 sereno Sereno 30 22 62 1011 10 N 20.3
Ieri h: 20:20 sereno Sereno 31 21 55 1011 10 N 18.5
Ieri h: 19:50 sereno Sereno 33 21 49 1011 10 N 16.7
Ieri h: 19:20 sereno Sereno 34 19 41 1010 10 N/NO 13
Ieri h: 18:50 sereno Sereno 33 20 46 1010 10 S 9.3
Ieri h: 18:20 sereno Sereno 33 20 46 1010 10 S 11.1
Ieri h: 17:50 sereno Sereno 33 22 52 1010 10 S 16.7
Ieri h: 17:20 sereno Sereno 37 15 27 1010 10 N/NO 14.8
Ieri h: 16:50 sereno Sereno 37 15 27 1010 10 N 16.7
Ieri h: 16:20 sereno Sereno 37 15 27 1010 10 N/NE 22.2
Ieri h: 15:50 sereno Sereno 37 15 27 1011 10 N 20.3
Ieri h: 15:20 sereno Sereno 37 16 28 1011 10 N 18.5
Ieri h: 14:50 sereno Sereno 37 16 28 1011 10 N 20.3
Ieri h: 14:20 sereno Sereno 37 15 27 1011 10 N 18.5
Ieri h: 13:50 sereno Sereno 36 16 30 1012 10 N 18.5
Ieri h: 13:20 sereno Sereno 35 15 30 1012 10 N 22.2
Ieri h: 12:50 sereno Sereno 35 17 34 1012 10 N 16.7
Ieri h: 12:20 sereno Sereno 34 20 43 1012 10 N 16.7
Ieri h: 11:50 sereno Sereno 33 21 49 1013 10 N 16.7